createdAt,value
2023-03-02T00:00:17.136Z,66.00
2023-03-02T00:01:17.128Z,65.80
2023-03-02T00:02:17.176Z,65.97
2023-03-02T00:03:17.140Z,65.97
2023-03-02T00:04:17.097Z,66.31
2023-03-02T00:05:17.086Z,65.66
2023-03-02T00:06:17.128Z,65.87
2023-03-02T00:07:17.084Z,65.90
2023-03-02T00:08:22.070Z,65.87
2023-03-02T00:09:17.101Z,66.11
2023-03-02T00:10:17.031Z,66.00
2023-03-02T00:11:17.022Z,66.42
2023-03-02T00:12:17.053Z,66.42
2023-03-02T00:13:17.017Z,66.21
2023-03-02T00:14:17.025Z,66.63
2023-03-02T00:15:16.979Z,65.90
2023-03-02T00:16:17.050Z,66.81
2023-03-02T00:17:16.963Z,66.42
2023-03-02T00:18:17.015Z,66.11
2023-03-02T00:19:21.955Z,66.21
2023-03-02T00:20:16.952Z,66.74
2023-03-02T00:21:16.936Z,66.63
2023-03-02T00:22:16.907Z,66.63
2023-03-02T00:23:16.917Z,66.53
2023-03-02T00:24:16.900Z,66.31
2023-03-02T00:25:16.878Z,66.42
2023-03-02T00:26:16.855Z,66.21
2023-03-02T00:27:16.868Z,66.53
2023-03-02T00:28:16.836Z,66.21
2023-03-02T00:29:16.852Z,66.74
2023-03-02T00:30:21.877Z,66.53
2023-03-02T00:31:16.917Z,66.60
2023-03-02T00:32:16.853Z,66.60
2023-03-02T00:33:16.785Z,66.91
2023-03-02T00:34:16.770Z,66.50
2023-03-02T00:35:16.756Z,66.50
2023-03-02T00:36:16.773Z,65.97
2023-03-02T00:37:16.732Z,66.18
2023-03-02T00:38:16.736Z,66.39
2023-03-02T00:39:16.711Z,66.08
2023-03-02T00:40:16.699Z,66.28
2023-03-02T00:41:21.808Z,66.25
2023-03-02T00:42:16.699Z,65.97
2023-03-02T00:43:16.688Z,66.08
2023-03-02T00:44:16.656Z,66.08
2023-03-02T00:45:16.676Z,65.53
2023-03-02T00:46:16.692Z,65.87
2023-03-02T00:47:16.624Z,65.42
2023-03-02T00:48:16.641Z,64.59
2023-03-02T00:49:16.599Z,65.32
2023-03-02T00:50:16.605Z,65.45
2023-03-02T00:51:16.579Z,64.73
2023-03-02T00:52:21.592Z,64.80
2023-03-02T00:53:16.569Z,65.35
2023-03-02T00:54:16.564Z,65.42
2023-03-02T00:55:16.536Z,64.80
2023-03-02T00:56:16.531Z,65.04
2023-03-02T00:57:16.511Z,64.70
2023-03-02T00:58:16.521Z,64.80
2023-03-02T00:59:16.496Z,65.14
2023-03-02T01:00:16.500Z,65.25
2023-03-02T01:01:18.602Z,65.04
2023-03-02T01:02:16.483Z,64.94
2023-03-02T01:03:21.501Z,65.35
2023-03-02T01:04:16.437Z,64.62
2023-03-02T01:05:16.426Z,65.04
2023-03-02T01:06:16.431Z,65.45
2023-03-02T01:07:16.414Z,64.73
2023-03-02T01:08:16.401Z,66.08
2023-03-02T01:09:16.384Z,65.56
2023-03-02T01:10:16.374Z,65.56
2023-03-02T01:11:16.379Z,65.77
2023-03-02T01:12:16.374Z,65.63
2023-03-02T01:13:16.352Z,65.77
2023-03-02T01:14:21.354Z,66.08
2023-03-02T01:15:16.329Z,66.39
2023-03-02T01:16:16.402Z,65.97
2023-03-02T01:17:16.377Z,65.56
2023-03-02T01:18:16.314Z,66.00
2023-03-02T01:19:16.278Z,66.31
2023-03-02T01:20:16.261Z,65.87
2023-03-02T01:21:16.260Z,66.63
2023-03-02T01:22:16.250Z,66.50
2023-03-02T01:23:16.245Z,65.80
2023-03-02T01:24:16.296Z,66.21
2023-03-02T01:25:21.238Z,65.69
2023-03-02T01:26:16.201Z,66.31
2023-03-02T01:27:16.190Z,66.00
2023-03-02T01:28:16.189Z,66.42
2023-03-02T01:29:16.170Z,66.31
2023-03-02T01:30:16.180Z,66.39
2023-03-02T01:31:16.195Z,66.11
2023-03-02T01:32:16.161Z,66.39
2023-03-02T01:33:16.206Z,66.00
2023-03-02T01:34:16.115Z,66.21
2023-03-02T01:35:16.123Z,66.00
2023-03-02T01:36:21.144Z,66.00
2023-03-02T01:37:16.079Z,66.63
2023-03-02T01:38:16.158Z,66.31
2023-03-02T01:39:16.224Z,66.74
2023-03-02T01:40:16.054Z,66.63
2023-03-02T01:41:16.049Z,66.11
2023-03-02T01:42:16.042Z,66.63
2023-03-02T01:43:16.025Z,66.53
2023-03-02T01:44:16.009Z,66.63
2023-03-02T01:45:15.997Z,66.63
2023-03-02T01:46:15.978Z,66.63
2023-03-02T01:47:20.994Z,66.63
2023-03-02T01:48:15.987Z,66.53
2023-03-02T01:49:15.974Z,66.53
2023-03-02T01:50:15.942Z,66.63
2023-03-02T01:51:16.011Z,66.31
2023-03-02T01:52:15.924Z,66.31
2023-03-02T01:53:15.939Z,66.28
2023-03-02T01:54:15.967Z,66.42
2023-03-02T01:55:15.886Z,66.42
2023-03-02T01:56:15.876Z,66.31
2023-03-02T01:57:15.861Z,66.42
2023-03-02T01:58:20.878Z,66.53
2023-03-02T01:59:15.841Z,66.63
2023-03-02T02:00:15.847Z,66.60
2023-03-02T02:01:15.967Z,66.63
2023-03-02T02:02:15.803Z,66.53
2023-03-02T02:03:15.797Z,66.60
2023-03-02T02:04:15.826Z,66.31
2023-03-02T02:05:15.805Z,66.53
2023-03-02T02:06:15.817Z,66.28
2023-03-02T02:07:15.748Z,66.60
2023-03-02T02:08:15.740Z,66.71
2023-03-02T02:09:20.761Z,66.60
2023-03-02T02:10:15.712Z,66.63
2023-03-02T02:11:15.706Z,66.31
2023-03-02T02:12:15.710Z,66.42
2023-03-02T02:13:15.684Z,66.08
2023-03-02T02:14:15.689Z,66.31
2023-03-02T02:15:15.659Z,66.42
2023-03-02T02:16:15.676Z,66.21
2023-03-02T02:17:15.638Z,66.74
2023-03-02T02:18:15.646Z,66.42
2023-03-02T02:19:15.627Z,66.21
2023-03-02T02:20:20.700Z,66.21
2023-03-02T02:21:15.605Z,66.84
2023-03-02T02:22:15.590Z,67.25
2023-03-02T02:23:15.574Z,67.60
2023-03-02T02:24:15.585Z,67.29
2023-03-02T02:25:15.563Z,67.18
2023-03-02T02:26:15.540Z,67.49
2023-03-02T02:27:15.529Z,67.18
2023-03-02T02:28:15.552Z,67.11
2023-03-02T02:29:15.518Z,67.00
2023-03-02T02:30:15.499Z,66.87
2023-03-02T02:31:20.577Z,66.87
2023-03-02T02:32:15.705Z,68.15
2023-03-02T02:33:15.462Z,67.83
2023-03-02T02:34:15.490Z,68.28
2023-03-02T02:35:15.442Z,67.86
2023-03-02T02:36:15.454Z,68.15
2023-03-02T02:37:15.428Z,68.18
2023-03-02T02:38:15.409Z,69.12
2023-03-02T02:39:15.393Z,69.22
2023-03-02T02:40:15.398Z,68.60
2023-03-02T02:41:15.408Z,68.80
2023-03-02T02:42:20.388Z,68.80
2023-03-02T02:43:15.383Z,68.80
2023-03-02T02:44:15.345Z,68.91
2023-03-02T02:45:15.339Z,68.70
2023-03-02T02:46:15.362Z,69.04
2023-03-02T02:47:15.309Z,68.70
2023-03-02T02:48:15.301Z,69.04
2023-03-02T02:49:15.310Z,69.67
2023-03-02T02:50:15.292Z,69.56
2023-03-02T02:51:15.266Z,69.07
2023-03-02T02:52:15.392Z,69.25
2023-03-02T02:53:20.283Z,69.35
2023-03-02T02:54:15.244Z,68.94
2023-03-02T02:55:15.269Z,68.87
2023-03-02T02:56:15.228Z,69.25
2023-03-02T02:57:15.201Z,69.07
2023-03-02T02:58:15.190Z,69.38
2023-03-02T02:59:15.178Z,69.70
2023-03-02T03:00:15.184Z,69.81
2023-03-02T03:01:15.280Z,69.49
2023-03-02T03:02:15.144Z,69.59
2023-03-02T03:03:15.138Z,69.49
2023-03-02T03:04:20.216Z,69.59
2023-03-02T03:05:15.152Z,69.49
2023-03-02T03:06:15.102Z,70.01
2023-03-02T03:07:15.109Z,69.38
2023-03-02T03:08:15.101Z,69.28
2023-03-02T03:09:15.081Z,70.01
2023-03-02T03:10:15.070Z,69.84
2023-03-02T03:11:15.046Z,70.12
2023-03-02T03:12:15.038Z,70.04
2023-03-02T03:13:15.063Z,69.91
2023-03-02T03:14:15.017Z,70.01
2023-03-02T03:15:20.057Z,69.94
2023-03-02T03:16:15.106Z,69.91
2023-03-02T03:17:14.994Z,69.73
2023-03-02T03:18:14.968Z,69.91
2023-03-02T03:19:14.980Z,69.73
2023-03-02T03:20:14.956Z,69.70
2023-03-02T03:21:14.943Z,69.49
2023-03-02T03:22:14.933Z,69.84
2023-03-02T03:23:14.915Z,70.12
2023-03-02T03:24:14.920Z,69.63
2023-03-02T03:25:14.909Z,70.56
2023-03-02T03:26:19.909Z,69.59
2023-03-02T03:27:14.867Z,70.25
2023-03-02T03:28:14.857Z,69.81
2023-03-02T03:29:14.844Z,69.63
2023-03-02T03:30:14.847Z,69.94
2023-03-02T03:31:14.906Z,69.63
2023-03-02T03:32:14.868Z,69.63
2023-03-02T03:33:14.802Z,69.53
2023-03-02T03:34:14.794Z,70.67
2023-03-02T03:35:14.781Z,70.56
2023-03-02T03:36:14.781Z,70.56
2023-03-02T03:37:19.818Z,70.56
2023-03-02T03:38:14.741Z,70.36
2023-03-02T03:39:14.737Z,70.78
2023-03-02T03:40:14.815Z,70.43
2023-03-02T03:41:14.738Z,70.46
2023-03-02T03:42:14.699Z,70.56
2023-03-02T03:43:14.711Z,70.36
2023-03-02T03:44:14.676Z,70.04
2023-03-02T03:45:14.670Z,70.04
2023-03-02T03:46:14.698Z,70.04
2023-03-02T03:47:14.648Z,70.04
2023-03-02T03:48:19.654Z,70.15
2023-03-02T03:49:14.646Z,70.36
2023-03-02T03:50:14.613Z,70.56
2023-03-02T03:51:14.613Z,70.78
2023-03-02T03:52:14.588Z,70.15
2023-03-02T03:53:14.586Z,70.46
2023-03-02T03:54:14.568Z,70.36
2023-03-02T03:55:14.585Z,70.36
2023-03-02T03:56:14.587Z,70.67
2023-03-02T03:57:14.537Z,70.36
2023-03-02T03:58:14.557Z,70.36
2023-03-02T03:59:19.536Z,70.36
2023-03-02T04:00:14.500Z,70.36
2023-03-02T04:01:14.541Z,70.56
2023-03-02T04:02:14.495Z,70.56
2023-03-02T04:03:14.469Z,70.36
2023-03-02T04:04:14.458Z,70.81
2023-03-02T04:05:14.443Z,70.70
2023-03-02T04:06:14.467Z,70.60
2023-03-02T04:07:14.487Z,70.60
2023-03-02T04:08:14.481Z,70.67
2023-03-02T04:09:14.450Z,70.15
2023-03-02T04:10:19.415Z,70.36
2023-03-02T04:11:14.404Z,70.25
2023-03-02T04:12:14.392Z,70.36
2023-03-02T04:13:14.384Z,70.25
2023-03-02T04:14:14.369Z,70.15
2023-03-02T04:15:14.338Z,70.25
2023-03-02T04:16:14.379Z,70.04
2023-03-02T04:17:14.317Z,70.15
2023-03-02T04:18:14.301Z,70.25
2023-03-02T04:19:14.291Z,70.25
2023-03-02T04:20:14.302Z,70.07
2023-03-02T04:21:19.310Z,70.36
2023-03-02T04:22:14.256Z,70.25
2023-03-02T04:23:14.246Z,70.36
2023-03-02T04:24:14.253Z,70.18
2023-03-02T04:25:14.228Z,69.94
2023-03-02T04:26:14.242Z,70.25
2023-03-02T04:27:14.248Z,70.60
2023-03-02T04:28:16.515Z,70.07
2023-03-02T04:29:14.191Z,70.07
2023-03-02T04:30:14.177Z,70.36
2023-03-02T04:31:14.241Z,70.46
2023-03-02T04:32:19.279Z,70.70
2023-03-02T04:33:14.181Z,70.25
2023-03-02T04:34:14.133Z,70.28
2023-03-02T04:35:14.124Z,70.07
2023-03-02T04:36:14.130Z,70.18
2023-03-02T04:37:14.105Z,70.50
2023-03-02T04:38:14.097Z,70.28
2023-03-02T04:39:14.092Z,70.39
2023-03-02T04:40:14.077Z,70.28
2023-03-02T04:41:14.131Z,70.39
2023-03-02T04:42:14.152Z,70.28
2023-03-02T04:43:19.084Z,70.50
2023-03-02T04:44:14.050Z,70.07
2023-03-02T04:45:14.038Z,70.18
2023-03-02T04:46:14.034Z,70.18
2023-03-02T04:47:14.000Z,70.11
2023-03-02T04:48:13.992Z,70.07
2023-03-02T04:49:13.980Z,70.18
2023-03-02T04:50:13.974Z,70.18
2023-03-02T04:51:14.005Z,70.11
2023-03-02T04:52:13.952Z,70.11
2023-03-02T04:53:13.934Z,70.21
2023-03-02T04:54:18.954Z,70.11
2023-03-02T04:55:13.918Z,70.35
2023-03-02T04:56:13.911Z,70.14
2023-03-02T04:57:13.919Z,70.84
2023-03-02T04:58:13.882Z,70.56
2023-03-02T04:59:13.888Z,70.66
2023-03-02T05:00:13.867Z,70.66
2023-03-02T05:01:13.863Z,70.14
2023-03-02T05:02:13.988Z,70.56
2023-03-02T05:03:13.848Z,70.56
2023-03-02T05:04:13.835Z,70.56
2023-03-02T05:05:18.837Z,70.45
2023-03-02T05:06:13.803Z,70.76
2023-03-02T05:07:13.784Z,70.87
2023-03-02T05:08:13.771Z,70.66
2023-03-02T05:09:13.786Z,70.45
2023-03-02T05:10:13.745Z,70.25
2023-03-02T05:11:13.756Z,70.66
2023-03-02T05:12:13.726Z,70.45
2023-03-02T05:13:13.718Z,70.35
2023-03-02T05:14:13.710Z,70.56
2023-03-02T05:15:13.733Z,70.35
2023-03-02T05:16:18.785Z,70.66
2023-03-02T05:17:13.681Z,70.56
2023-03-02T05:18:13.666Z,70.45
2023-03-02T05:19:13.649Z,70.66
2023-03-02T05:20:13.636Z,70.87
2023-03-02T05:21:13.646Z,70.66
2023-03-02T05:22:13.624Z,71.19
2023-03-02T05:23:13.621Z,71.08
2023-03-02T05:24:13.619Z,71.39
2023-03-02T05:25:13.582Z,71.01
2023-03-02T05:26:13.575Z,71.22
2023-03-02T05:27:18.626Z,71.19
2023-03-02T05:28:13.548Z,71.60
2023-03-02T05:29:13.545Z,71.19
2023-03-02T05:30:13.529Z,71.19
2023-03-02T05:31:13.623Z,71.08
2023-03-02T05:32:13.593Z,71.29
2023-03-02T05:33:13.538Z,70.98
2023-03-02T05:34:13.483Z,71.08
2023-03-02T05:35:14.254Z,71.70
2023-03-02T05:36:13.468Z,71.50
2023-03-02T05:37:13.461Z,71.39
2023-03-02T05:38:18.460Z,71.60
2023-03-02T05:39:13.468Z,71.60
2023-03-02T05:40:13.419Z,71.70
2023-03-02T05:41:13.406Z,71.50
2023-03-02T05:42:13.403Z,72.02
2023-03-02T05:43:13.383Z,71.81
2023-03-02T05:44:13.373Z,71.50
2023-03-02T05:45:13.387Z,71.50
2023-03-02T05:46:13.357Z,71.81
2023-03-02T05:47:13.451Z,71.81
2023-03-02T05:48:13.330Z,71.81
2023-03-02T05:49:18.346Z,71.60
2023-03-02T05:50:13.318Z,72.02
2023-03-02T05:51:13.340Z,71.91
2023-03-02T05:52:13.300Z,71.91
2023-03-02T05:53:13.288Z,71.50
2023-03-02T05:54:13.264Z,71.50
2023-03-02T05:55:13.271Z,71.50
2023-03-02T05:56:13.239Z,71.67
2023-03-02T05:57:13.272Z,71.78
2023-03-02T05:58:13.219Z,71.47
2023-03-02T05:59:13.208Z,71.70
2023-03-02T06:00:18.237Z,71.67
2023-03-02T06:01:15.387Z,71.57
2023-03-02T06:02:13.228Z,71.78
2023-03-02T06:03:13.293Z,71.70
2023-03-02T06:04:13.165Z,71.81
2023-03-02T06:05:13.140Z,71.78
2023-03-02T06:06:13.130Z,71.67
2023-03-02T06:07:13.126Z,71.67
2023-03-02T06:08:13.113Z,71.78
2023-03-02T06:09:13.121Z,71.47
2023-03-02T06:10:13.082Z,71.67
2023-03-02T06:11:18.102Z,71.47
2023-03-02T06:12:13.074Z,71.47
2023-03-02T06:13:13.051Z,71.57
2023-03-02T06:14:13.040Z,71.67
2023-03-02T06:15:13.051Z,71.67
2023-03-02T06:16:13.094Z,71.67
2023-03-02T06:17:13.041Z,71.53
2023-03-02T06:18:12.998Z,71.75
2023-03-02T06:19:13.110Z,71.75
2023-03-02T06:20:12.995Z,71.53
2023-03-02T06:21:12.988Z,71.64
2023-03-02T06:22:17.985Z,71.75
2023-03-02T06:23:12.945Z,71.75
2023-03-02T06:24:12.933Z,71.64
2023-03-02T06:25:12.921Z,71.64
2023-03-02T06:26:12.938Z,71.64
2023-03-02T06:27:12.934Z,71.64
2023-03-02T06:28:12.893Z,71.64
2023-03-02T06:29:13.353Z,71.43
2023-03-02T06:30:12.871Z,71.61
2023-03-02T06:31:12.854Z,71.43
2023-03-02T06:32:13.004Z,71.19
2023-03-02T06:33:17.881Z,71.50
2023-03-02T06:34:12.821Z,71.30
2023-03-02T06:35:12.896Z,71.61
2023-03-02T06:36:12.968Z,71.30
2023-03-02T06:37:12.813Z,71.19
2023-03-02T06:38:12.777Z,70.78
2023-03-02T06:39:12.783Z,71.09
2023-03-02T06:40:12.755Z,71.09
2023-03-02T06:41:12.751Z,70.88
2023-03-02T06:42:12.750Z,70.74
2023-03-02T06:43:12.723Z,70.32
2023-03-02T06:44:17.745Z,70.22
2023-03-02T06:45:12.754Z,70.32
2023-03-02T06:46:12.798Z,70.64
2023-03-02T06:47:12.682Z,70.01
2023-03-02T06:48:12.678Z,70.43
2023-03-02T06:49:14.190Z,70.01
2023-03-02T06:50:12.654Z,70.32
2023-03-02T06:51:12.735Z,70.64
2023-03-02T06:52:12.629Z,70.53
2023-03-02T06:53:12.623Z,70.22
2023-03-02T06:54:12.605Z,69.59
2023-03-02T06:55:17.618Z,69.56
2023-03-02T06:56:12.583Z,69.67
2023-03-02T06:57:12.593Z,69.67
2023-03-02T06:58:12.574Z,69.67
2023-03-02T06:59:12.548Z,69.87
2023-03-02T07:00:12.538Z,70.09
2023-03-02T07:01:12.592Z,69.67
2023-03-02T07:02:12.536Z,69.77
2023-03-02T07:03:12.543Z,69.67
2023-03-02T07:04:12.495Z,69.56
2023-03-02T07:05:12.497Z,69.35
2023-03-02T07:06:17.516Z,69.15
2023-03-02T07:07:12.461Z,69.77
2023-03-02T07:08:12.456Z,69.84
2023-03-02T07:09:12.466Z,69.22
2023-03-02T07:10:12.433Z,69.32
2023-03-02T07:11:12.414Z,69.53
2023-03-02T07:12:12.406Z,69.22
2023-03-02T07:13:12.407Z,69.12
2023-03-02T07:14:12.386Z,69.22
2023-03-02T07:15:12.488Z,69.22
2023-03-02T07:16:12.366Z,69.22
2023-03-02T07:17:17.379Z,69.22
2023-03-02T07:18:12.351Z,69.22
2023-03-02T07:19:12.328Z,69.01
2023-03-02T07:20:12.320Z,69.60
2023-03-02T07:21:12.331Z,68.98
2023-03-02T07:22:12.316Z,68.98
2023-03-02T07:23:12.356Z,68.66
2023-03-02T07:24:12.273Z,68.46
2023-03-02T07:25:12.276Z,68.46
2023-03-02T07:26:12.248Z,68.84
2023-03-02T07:27:12.256Z,68.43
2023-03-02T07:28:17.264Z,68.43
2023-03-02T07:29:12.226Z,67.77
2023-03-02T07:30:12.219Z,68.50
2023-03-02T07:31:12.262Z,67.98
2023-03-02T07:32:12.724Z,67.15
2023-03-02T07:33:12.212Z,67.77
2023-03-02T07:34:12.169Z,66.94
2023-03-02T07:35:12.166Z,66.91
2023-03-02T07:36:12.158Z,67.02
2023-03-02T07:37:12.127Z,67.54
2023-03-02T07:38:12.181Z,67.12
2023-03-02T07:39:17.158Z,66.60
2023-03-02T07:40:12.110Z,66.28
2023-03-02T07:41:12.086Z,66.39
2023-03-02T07:42:12.073Z,66.60
2023-03-02T07:43:12.074Z,65.97
2023-03-02T07:44:12.054Z,66.28
2023-03-02T07:45:12.067Z,66.47
2023-03-02T07:46:12.082Z,65.66
2023-03-02T07:47:12.029Z,65.94
2023-03-02T07:48:12.021Z,66.67
2023-03-02T07:49:11.998Z,66.47
2023-03-02T07:50:17.026Z,66.25
2023-03-02T07:51:11.987Z,66.15
2023-03-02T07:52:11.968Z,66.25
2023-03-02T07:53:11.963Z,66.25
2023-03-02T07:54:11.989Z,65.84
2023-03-02T07:55:11.947Z,66.25
2023-03-02T07:56:11.936Z,66.25
2023-03-02T07:57:11.926Z,65.81
2023-03-02T07:58:11.909Z,65.91
2023-03-02T07:59:11.900Z,65.81
2023-03-02T08:00:11.893Z,65.91
2023-03-02T08:01:16.892Z,64.77
2023-03-02T08:02:11.890Z,65.08
2023-03-02T08:03:11.958Z,65.06
2023-03-02T08:04:11.835Z,64.43
2023-03-02T08:05:11.826Z,64.75
2023-03-02T08:06:11.838Z,64.85
2023-03-02T08:07:11.803Z,64.09
2023-03-02T08:08:11.798Z,64.51
2023-03-02T08:09:11.802Z,64.61
2023-03-02T08:10:11.784Z,64.30
2023-03-02T08:11:11.760Z,64.40
2023-03-02T08:12:16.774Z,63.99
2023-03-02T08:13:11.751Z,64.06
2023-03-02T08:14:11.726Z,64.20
2023-03-02T08:15:11.744Z,63.13
2023-03-02T08:16:11.722Z,63.65
2023-03-02T08:17:11.696Z,63.54
2023-03-02T08:18:11.683Z,63.02
2023-03-02T08:19:11.678Z,63.13
2023-03-02T08:20:11.667Z,63.10
2023-03-02T08:21:11.679Z,63.41
2023-03-02T08:22:11.636Z,63.31
2023-03-02T08:23:16.647Z,62.89
2023-03-02T08:24:11.627Z,62.35
2023-03-02T08:25:11.627Z,62.48
2023-03-02T08:26:13.832Z,62.76
2023-03-02T08:27:11.603Z,62.32
2023-03-02T08:28:11.567Z,61.90
2023-03-02T08:29:11.568Z,62.01
2023-03-02T08:30:11.545Z,61.36
2023-03-02T08:31:11.594Z,60.63
2023-03-02T08:32:11.763Z,60.71
2023-03-02T08:33:11.531Z,59.72
2023-03-02T08:34:16.540Z,58.22
2023-03-02T08:35:11.491Z,57.45
2023-03-02T08:36:11.553Z,56.59
2023-03-02T08:37:11.468Z,55.21
2023-03-02T08:38:11.461Z,53.63
2023-03-02T08:39:11.501Z,54.46
2023-03-02T08:40:11.439Z,54.13
2023-03-02T08:41:11.428Z,52.84
2023-03-02T08:42:11.448Z,51.79
2023-03-02T08:43:11.408Z,50.32
2023-03-02T08:44:11.398Z,50.61
2023-03-02T08:45:16.443Z,49.38
2023-03-02T08:46:11.464Z,50.22
2023-03-02T08:47:11.364Z,50.63
2023-03-02T08:48:11.350Z,49.69
2023-03-02T08:49:11.339Z,49.56
2023-03-02T08:50:11.325Z,49.15
2023-03-02T08:51:11.328Z,49.46
2023-03-02T08:52:11.299Z,49.69
2023-03-02T08:53:11.284Z,50.53
2023-03-02T08:54:11.292Z,50.56
2023-03-02T08:55:11.301Z,50.86
2023-03-02T08:56:16.276Z,51.17
2023-03-02T08:57:11.267Z,50.32
2023-03-02T08:58:11.255Z,51.33
2023-03-02T08:59:11.243Z,49.38
2023-03-02T09:00:11.206Z,50.07
2023-03-02T09:01:11.247Z,48.51
2023-03-02T09:02:11.187Z,48.49
2023-03-02T09:03:11.196Z,47.97
2023-03-02T09:04:11.253Z,48.26
2023-03-02T09:05:11.212Z,47.22
2023-03-02T09:06:11.138Z,47.19
2023-03-02T09:07:16.606Z,46.56
2023-03-02T09:08:11.127Z,46.89
2023-03-02T09:09:11.183Z,46.45
2023-03-02T09:10:11.099Z,46.76
2023-03-02T09:11:11.088Z,46.56
2023-03-02T09:12:11.079Z,46.76
2023-03-02T09:13:11.063Z,46.76
2023-03-02T09:14:11.247Z,46.97
2023-03-02T09:15:11.047Z,45.82
2023-03-02T09:16:11.041Z,46.04
2023-03-02T09:17:11.015Z,46.78
2023-03-02T09:18:16.038Z,47.44
2023-03-02T09:19:11.004Z,48.39
2023-03-02T09:20:10.992Z,48.49
2023-03-02T09:21:11.016Z,49.43
2023-03-02T09:22:10.961Z,49.56
2023-03-02T09:23:10.951Z,50.28
2023-03-02T09:24:10.964Z,50.69
2023-03-02T09:25:10.932Z,49.54
2023-03-02T09:26:10.921Z,48.36
2023-03-02T09:27:10.931Z,47.63
2023-03-02T09:28:10.898Z,47.40
2023-03-02T09:29:15.964Z,46.68
2023-03-02T09:30:10.877Z,47.07
2023-03-02T09:31:10.862Z,46.41
2023-03-02T09:32:11.241Z,47.03
2023-03-02T09:33:10.912Z,45.39
2023-03-02T09:34:10.865Z,45.47
2023-03-02T09:35:10.824Z,45.67
2023-03-02T09:36:10.815Z,45.49
2023-03-02T09:37:10.801Z,45.31
2023-03-02T09:38:10.856Z,46.56
2023-03-02T09:39:10.869Z,47.50
2023-03-02T09:40:15.812Z,47.71
2023-03-02T09:41:10.751Z,47.19
2023-03-02T09:42:10.753Z,47.09
2023-03-02T09:43:10.728Z,47.40
2023-03-02T09:44:10.722Z,46.89
2023-03-02T09:45:10.755Z,47.38
2023-03-02T09:46:10.768Z,47.09
2023-03-02T09:47:10.696Z,46.86
2023-03-02T09:48:10.684Z,46.99
2023-03-02T09:49:10.667Z,46.86
2023-03-02T09:50:10.677Z,47.48
2023-03-02T09:51:15.687Z,47.15
2023-03-02T09:52:10.701Z,46.23
2023-03-02T09:53:10.623Z,46.64
2023-03-02T09:54:10.644Z,46.53
2023-03-02T09:55:10.627Z,45.70
2023-03-02T09:56:10.584Z,45.90
2023-03-02T09:57:10.613Z,45.88
2023-03-02T09:58:10.570Z,45.47
2023-03-02T09:59:10.549Z,46.29
2023-03-02T10:00:19.191Z,44.94
2023-03-02T10:01:10.549Z,44.53
2023-03-02T10:02:15.546Z,44.92
2023-03-02T10:03:16.985Z,44.26
2023-03-02T10:04:10.605Z,43.96
2023-03-02T10:05:10.486Z,44.49
2023-03-02T10:06:10.477Z,44.38
2023-03-02T10:07:10.458Z,43.55
2023-03-02T10:08:10.458Z,43.96
2023-03-02T10:09:10.448Z,44.41
2023-03-02T10:10:10.435Z,44.10
2023-03-02T10:11:10.415Z,45.22
2023-03-02T10:12:10.429Z,44.71
2023-03-02T10:13:15.414Z,44.69
2023-03-02T10:14:10.383Z,44.61
2023-03-02T10:15:10.399Z,44.31
2023-03-02T10:16:10.533Z,44.71
2023-03-02T10:17:10.372Z,44.28
2023-03-02T10:18:10.351Z,44.90
2023-03-02T10:19:10.325Z,43.55
2023-03-02T10:20:10.332Z,43.55
2023-03-02T10:21:10.318Z,44.28
2023-03-02T10:22:10.292Z,44.20
2023-03-02T10:23:10.278Z,44.53
2023-03-02T10:24:15.294Z,45.86
2023-03-02T10:25:10.264Z,45.55
2023-03-02T10:26:10.252Z,45.45
2023-03-02T10:27:10.262Z,45.65
2023-03-02T10:28:10.223Z,45.12
2023-03-02T10:29:10.213Z,45.14
2023-03-02T10:30:10.224Z,46.39
2023-03-02T10:31:10.290Z,47.03
2023-03-02T10:32:10.238Z,46.19
2023-03-02T10:33:10.196Z,46.62
2023-03-02T10:34:10.160Z,46.41
2023-03-02T10:35:15.180Z,46.62
2023-03-02T10:36:10.135Z,46.72
2023-03-02T10:37:10.132Z,47.13
2023-03-02T10:38:10.115Z,47.23
2023-03-02T10:39:10.164Z,47.64
2023-03-02T10:40:10.093Z,46.80
2023-03-02T10:41:10.083Z,45.73
2023-03-02T10:42:10.108Z,45.00
2023-03-02T10:43:10.057Z,45.18
2023-03-02T10:44:10.044Z,44.26
2023-03-02T10:45:10.048Z,43.81
2023-03-02T10:46:15.084Z,43.71
2023-03-02T10:47:10.008Z,43.71
2023-03-02T10:48:10.007Z,42.88
2023-03-02T10:49:10.019Z,43.51
2023-03-02T10:50:09.986Z,43.61
2023-03-02T10:51:10.003Z,43.18
2023-03-02T10:52:09.954Z,43.29
2023-03-02T10:53:09.945Z,42.74
2023-03-02T10:54:09.935Z,42.22
2023-03-02T10:55:09.917Z,42.22
2023-03-02T10:56:09.922Z,42.10
2023-03-02T10:57:14.982Z,42.13
2023-03-02T10:58:09.899Z,42.22
2023-03-02T10:59:09.873Z,42.65
2023-03-02T11:00:09.862Z,42.45
2023-03-02T11:01:09.915Z,42.55
2023-03-02T11:02:09.847Z,42.14
2023-03-02T11:03:09.839Z,42.25
2023-03-02T11:04:09.875Z,42.83
2023-03-02T11:05:09.833Z,43.16
2023-03-02T11:06:09.804Z,43.81
2023-03-02T11:07:09.786Z,44.45
2023-03-02T11:08:14.791Z,44.37
2023-03-02T11:09:09.779Z,45.00
2023-03-02T11:10:09.748Z,44.98
2023-03-02T11:11:09.749Z,44.87
2023-03-02T11:12:09.798Z,44.98
2023-03-02T11:13:09.719Z,45.18
2023-03-02T11:14:09.702Z,44.24
2023-03-02T11:15:09.714Z,44.73
2023-03-02T11:16:09.742Z,43.69
2023-03-02T11:17:09.675Z,43.47
2023-03-02T11:18:09.656Z,42.96
2023-03-02T11:19:14.667Z,42.41
2023-03-02T11:20:09.642Z,41.88
2023-03-02T11:21:09.665Z,41.68
2023-03-02T11:22:09.612Z,41.78
2023-03-02T11:23:09.605Z,42.21
2023-03-02T11:24:10.515Z,42.13
2023-03-02T11:25:09.576Z,42.55
2023-03-02T11:26:09.572Z,43.08
2023-03-02T11:27:09.567Z,43.79
2023-03-02T11:28:09.548Z,43.14
2023-03-02T11:29:09.531Z,42.41
2023-03-02T11:30:14.541Z,41.90
2023-03-02T11:31:09.573Z,42.33
2023-03-02T11:32:09.553Z,42.88
2023-03-02T11:33:09.549Z,44.43
2023-03-02T11:34:17.323Z,44.45
2023-03-02T11:35:09.478Z,45.18
2023-03-02T11:36:09.450Z,45.39
2023-03-02T11:37:09.475Z,45.10
2023-03-02T11:38:09.451Z,45.40
2023-03-02T11:39:09.423Z,46.25
2023-03-02T11:40:09.427Z,46.22
2023-03-02T11:41:14.417Z,45.28
2023-03-02T11:42:09.435Z,44.85
2023-03-02T11:43:09.376Z,44.00
2023-03-02T11:44:09.362Z,43.57
2023-03-02T11:45:09.350Z,44.08
2023-03-02T11:46:21.154Z,43.96
2023-03-02T11:47:09.463Z,43.44
2023-03-02T11:48:09.347Z,42.83
2023-03-02T11:49:09.305Z,42.82
2023-03-02T11:50:09.297Z,41.86
2023-03-02T11:51:09.285Z,40.50
2023-03-02T11:52:16.031Z,40.08
2023-03-02T11:53:09.288Z,40.24
2023-03-02T11:54:09.267Z,39.73
2023-03-02T11:55:09.239Z,39.42
2023-03-02T11:56:09.228Z,39.84
2023-03-02T11:57:09.232Z,40.16
2023-03-02T11:58:09.212Z,40.38
2023-03-02T11:59:09.216Z,40.69
2023-03-02T12:00:09.192Z,40.61
2023-03-02T12:01:09.206Z,40.54
2023-03-02T12:02:09.210Z,41.96
2023-03-02T12:03:14.172Z,41.58
2023-03-02T12:04:09.136Z,42.59
2023-03-02T12:05:09.201Z,43.14
2023-03-02T12:06:09.117Z,43.14
2023-03-02T12:07:09.133Z,43.44
2023-03-02T12:08:09.118Z,43.24
2023-03-02T12:09:09.178Z,43.65
2023-03-02T12:10:09.072Z,42.92
2023-03-02T12:11:09.104Z,42.29
2023-03-02T12:12:09.053Z,42.59
2023-03-02T12:13:09.051Z,42.29
2023-03-02T12:14:14.050Z,42.08
2023-03-02T12:15:09.022Z,42.59
2023-03-02T12:16:09.094Z,42.29
2023-03-02T12:17:09.045Z,42.71
2023-03-02T12:18:09.000Z,43.85
2023-03-02T12:19:08.981Z,43.32
2023-03-02T12:20:08.961Z,42.61
2023-03-02T12:21:08.973Z,42.51
2023-03-02T12:22:08.965Z,43.43
2023-03-02T12:23:08.985Z,43.53
2023-03-02T12:24:08.938Z,42.43
2023-03-02T12:25:13.931Z,43.32
2023-03-02T12:26:08.926Z,43.43
2023-03-02T12:27:08.888Z,42.59
2023-03-02T12:28:08.881Z,42.17
2023-03-02T12:29:08.887Z,42.57
2023-03-02T12:30:08.880Z,41.64
2023-03-02T12:31:08.912Z,43.08
2023-03-02T12:32:08.989Z,43.43
2023-03-02T12:33:08.840Z,43.75
2023-03-02T12:34:08.847Z,43.23
2023-03-02T12:35:08.829Z,43.73
2023-03-02T12:36:13.805Z,42.37
2023-03-02T12:37:08.880Z,42.14
2023-03-02T12:38:08.880Z,42.00
2023-03-02T12:39:08.750Z,40.75
2023-03-02T12:40:08.763Z,39.78
2023-03-02T12:41:08.758Z,38.93
2023-03-02T12:42:08.751Z,38.82
2023-03-02T12:43:08.814Z,37.59
2023-03-02T12:44:08.790Z,37.04
2023-03-02T12:45:08.742Z,36.15
2023-03-02T12:46:08.712Z,36.88
2023-03-02T12:47:14.016Z,37.01
2023-03-02T12:48:08.825Z,39.11
2023-03-02T12:49:09.861Z,40.56
2023-03-02T12:50:08.625Z,40.77
2023-03-02T12:51:08.641Z,40.34
2023-03-02T12:52:08.781Z,40.04